LYVR weather

Vršac International Airport
South Banat, Serbia

Public forecast

Using degrees Celsius for public forecast. Weather courtesy of forecast.io.

Current aviation weather report (METAR) for Vršac International Airport

Retrieved 2019/12/07 13:30 UTC (27 minutes ago):

LYVR 071330Z 29003KT 270V330 9999 BKN040 09/07 Q1017 NOSIG

Aviation forecast (TAF) for Vršac International Airport

Retrieved 2019/12/07 12:00 UTC (2 hours ago):

TAF LYVR 071100Z 0712/0812 21008KT 9999 SCT040 TX10/0713Z TN03/0805Z TEMPO 0718/0721 27012KT 5000 SHRA SCT027TCU BKN030 BECMG 0722/0724 3000 BR BKN010 BECMG 0802/0804 0600 FG BKN003 BECMG 0809/0811 3000 BR SCT010